Time;durP1;ratioP1;P1;durP2;ratioP2;P2;SDS_P1;SDS_P2;PMS_P1;PMS_P2;Temp;Humidity;BMP_temperature;BMP_pressure;BME280_temperature;BME280_humidity;BME280_pressure;Samples;Min_cycle;Max_cycle;Signal;HPM_P1;HPM_P2
2021/10/07 00:04:38;;;;;;;9.45;3.53;;;;;;;10.73;92.23;101239.56;20975731;28;20456;-68
2021/10/07 00:14:39;;;;;;;6.55;3.22;;;;;;;10.75;92.83;101241.31;20993520;28;20048;-68
2021/10/07 00:24:41;;;;;;;10.55;3.70;;;;;;;10.70;93.00;101232.59;20993107;28;20441;-68
2021/10/07 00:44:52;;;;;;;11.82;4.20;;;;;;;10.33;92.30;101236.16;20992451;28;20413;-68
2021/10/07 00:54:55;;;;;;;13.88;5.05;;;;;;;10.22;93.38;101244.00;20992311;28;20053;-67
2021/10/07 01:04:57;;;;;;;11.82;4.15;;;;;;;10.05;93.89;101243.13;20990271;28;20093;-68
2021/10/07 01:14:59;;;;;;;10.60;4.15;;;;;;;10.17;94.03;101251.84;20990077;28;20052;-68
2021/10/07 01:25:02;;;;;;;9.35;3.55;;;;;;;10.31;93.69;101257.13;20911101;28;20406;-68
2021/10/07 01:35:06;;;;;;;8.00;3.70;;;;;;;10.38;93.22;101256.22;20904052;28;20045;-68
2021/10/07 01:45:09;;;;;;;7.10;3.67;;;;;;;10.40;93.30;101244.03;20903447;28;20048;-68
2021/10/07 01:55:11;;;;;;;9.23;4.50;;;;;;;10.37;92.89;101254.50;20903883;28;20060;-68
2021/10/07 02:05:14;;;;;;;8.73;3.65;;;;;;;10.44;93.18;101266.72;20902345;28;20064;-68
2021/10/07 02:15:18;;;;;;;7.57;3.70;;;;;;;10.47;93.61;101258.84;20902552;28;20072;-68
2021/10/07 02:25:20;;;;;;;11.38;4.63;;;;;;;10.51;93.39;101265.81;20902163;28;20045;-68
2021/10/07 02:35:22;;;;;;;9.10;4.13;;;;;;;10.52;92.29;101270.16;20901006;28;20095;-68
2021/10/07 02:45:24;;;;;;;9.48;4.10;;;;;;;10.55;93.22;101278.91;20902171;28;20490;-68
2021/10/07 02:55:26;;;;;;;9.40;4.18;;;;;;;10.50;92.62;101281.53;20903150;28;20048;-68
2021/10/07 03:05:28;;;;;;;12.52;4.13;;;;;;;10.55;92.57;101299.88;20947715;28;20041;-68
2021/10/07 03:15:30;;;;;;;11.45;4.10;;;;;;;10.51;93.08;101304.22;20916450;28;20053;-68
2021/10/07 03:25:32;;;;;;;8.77;4.43;;;;;;;10.52;92.92;101322.53;20915271;28;20049;-67
2021/10/07 03:35:35;;;;;;;8.98;4.32;;;;;;;10.55;93.82;101323.44;20913969;28;20103;-69
2021/10/07 03:45:37;;;;;;;9.30;4.70;;;;;;;10.55;93.93;101328.66;20913203;28;20092;-68
2021/10/07 03:55:38;;;;;;;9.88;4.97;;;;;;;10.50;94.45;101328.66;20912558;28;20965;-68
2021/10/07 04:05:40;;;;;;;11.27;4.93;;;;;;;10.43;93.72;101335.63;20909562;28;20102;-68
2021/10/07 04:15:42;;;;;;;12.77;5.00;;;;;;;10.40;94.05;101343.50;20908797;28;20445;-68
2021/10/07 04:25:44;;;;;;;12.40;5.93;;;;;;;10.36;94.37;101362.69;20909306;28;20049;-68
2021/10/07 04:35:47;;;;;;;11.48;6.20;;;;;;;10.40;94.51;101364.44;20909259;28;20098;-68
2021/10/07 04:45:48;;;;;;;14.43;6.10;;;;;;;10.43;94.60;101363.56;20907990;28;20048;-68
2021/10/07 04:55:55;;;;;;;12.20;5.72;;;;;;;10.37;94.87;101380.16;20907170;28;20088;-68
2021/10/07 05:05:57;;;;;;;15.63;6.43;;;;;;;10.39;94.83;101369.66;20906658;28;20041;-68
2021/10/07 05:15:59;;;;;;;12.50;5.97;;;;;;;10.40;94.68;101379.28;20905817;28;20134;-68
2021/10/07 05:26:02;;;;;;;14.32;6.25;;;;;;;10.43;95.31;101380.13;20905786;28;20048;-68
2021/10/07 05:36:05;;;;;;;15.52;7.15;;;;;;;10.38;94.90;101387.13;20903840;28;20044;-68
2021/10/07 05:46:06;;;;;;;10.52;6.82;;;;;;;10.41;95.50;101402.84;20903301;28;20445;-68
2021/10/07 05:56:08;;;;;;;17.33;7.93;;;;;;;10.47;95.01;101397.59;20902227;28;20049;-68
2021/10/07 06:06:10;;;;;;;10.82;6.80;;;;;;;10.48;95.06;101401.09;20902040;28;20075;-69
2021/10/07 06:16:12;;;;;;;13.48;6.72;;;;;;;10.57;94.50;101395.88;20902760;28;20053;-70
2021/10/07 06:26:14;;;;;;;13.65;7.75;;;;;;;10.54;94.68;101408.97;20903211;28;20083;-69
2021/10/07 06:36:16;;;;;;;13.23;8.38;;;;;;;10.76;93.94;101425.56;20882921;28;20042;-69
2021/10/07 06:46:18;;;;;;;13.60;8.43;;;;;;;10.89;93.54;101436.91;20900145;28;20067;-69
2021/10/07 06:56:21;;;;;;;16.10;8.65;;;;;;;10.96;93.18;101443.88;20900002;28;20045;-70
2021/10/07 07:06:24;;;;;;;15.07;9.15;;;;;;;11.08;92.71;101466.59;20920064;28;20105;-70
2021/10/07 07:16:26;;;;;;;16.45;9.50;;;;;;;11.00;93.00;101474.44;20936297;28;20048;-71
2021/10/07 07:26:31;;;;;;;14.15;9.30;;;;;;;10.97;92.87;101483.22;20917298;28;20084;-71
2021/10/07 07:36:33;;;;;;;14.82;8.93;;;;;;;11.07;92.30;101489.31;20907543;28;20040;-71
2021/10/07 07:46:35;;;;;;;12.82;8.40;;;;;;;11.28;92.00;101499.78;20977312;28;20529;-71
2021/10/07 07:56:37;;;;;;;10.27;7.38;;;;;;;11.50;91.31;101516.38;20997429;28;20094;-72
2021/10/07 08:06:39;;;;;;;13.38;8.77;;;;;;;11.84;91.06;101500.56;20978852;28;20040;-73
2021/10/07 08:16:41;;;;;;;12.73;8.50;;;;;;;11.84;89.26;101521.56;20955136;28;20495;-71
2021/10/07 08:26:43;;;;;;;13.57;9.27;;;;;;;12.10;89.19;101529.34;20940259;28;20049;-71
2021/10/07 08:36:46;;;;;;;17.30;9.68;;;;;;;12.22;88.79;101528.44;20909772;28;20584;-70
2021/10/07 08:46:51;;;;;;;13.07;8.05;;;;;;;12.53;87.70;101540.50;20908145;28;20045;-71
2021/10/07 08:56:53;;;;;;;13.48;8.15;;;;;;;12.38;84.74;101540.59;20908441;28;20048;-70
2021/10/07 09:06:59;;;;;;;14.63;9.90;;;;;;;12.70;84.56;101531.69;20906886;28;20048;-70
2021/10/07 09:17:03;;;;;;;13.20;7.78;;;;;;;12.94;83.12;101521.00;20966595;28;20406;-70
2021/10/07 09:27:11;;;;;;;10.07;6.40;;;;;;;13.70;81.47;101521.19;20989144;28;20555;-72
2021/10/07 09:37:41;;;;;;;8.75;5.15;;;;;;;14.26;78.68;101504.72;20987436;28;20449;-69
2021/10/07 09:47:51;;;;;;;7.78;4.40;;;;;;;14.04;77.48;101512.03;20978444;28;20079;-70
2021/10/07 09:57:58;;;;;;;11.45;5.25;;;;;;;14.22;77.62;101510.06;20986392;28;20063;-68
2021/10/07 10:08:02;;;;;;;10.27;5.25;;;;;;;13.99;76.88;101503.34;20983541;28;20041;-68
2021/10/07 10:18:08;;;;;;;8.07;5.35;;;;;;;14.25;74.45;101502.97;20915460;28;20053;-68
2021/10/07 10:28:10;;;;;;;9.32;4.63;;;;;;;14.25;78.43;101520.56;20902145;28;20136;-68
2021/10/07 10:38:12;;;;;;;9.80;5.47;;;;;;;13.94;76.55;101523.56;20901510;28;20037;-68
2021/10/07 10:48:48;;;;;;;10.25;4.53;;;;;;;13.84;80.28;101529.81;20900871;28;20463;-68
2021/10/07 10:58:54;;;;;;;7.45;4.78;;;;;;;14.11;78.46;101529.50;20900872;28;20049;-68
2021/10/07 11:08:57;;;;;;;7.70;4.70;;;;;;;14.28;77.94;101544.25;20900332;28;20115;-68
2021/10/07 11:18:59;;;;;;;26.23;12.70;;;;;;;14.53;77.04;101550.94;20986758;28;20112;-68
2021/10/07 11:29:01;;;;;;;8.23;4.38;;;;;;;14.76;73.91;101541.84;20998043;28;20093;-68
2021/10/07 11:39:04;;;;;;;5.68;3.90;;;;;;;14.88;68.36;101539.03;20978912;28;20124;-68
2021/10/07 11:49:07;;;;;;;5.68;3.70;;;;;;;14.98;66.67;101535.34;20996981;28;20048;-68
2021/10/07 11:59:15;;;;;;;4.68;3.00;;;;;;;15.16;66.04;101538.59;20995764;28;20053;-69
2021/10/07 12:09:17;;;;;;;4.45;2.28;;;;;;;14.67;64.00;101526.16;20994173;28;20044;-69
2021/10/07 12:19:21;;;;;;;4.88;2.60;;;;;;;14.40;65.41;101509.81;20915365;28;20135;-69
2021/10/07 12:29:24;;;;;;;4.80;2.57;;;;;;;14.51;66.21;101500.00;20892814;28;20049;-68
2021/10/07 12:39:41;;;;;;;4.25;2.50;;;;;;;14.63;65.83;101505.13;20909919;28;20041;-68
2021/10/07 12:49:50;;;;;;;6.75;2.85;;;;;;;14.90;62.62;101497.69;20910893;28;20045;-68
2021/10/07 12:59:55;;;;;;;4.03;2.50;;;;;;;14.72;62.81;101492.69;20892549;28;20053;-68
2021/10/07 13:09:58;;;;;;;5.80;2.97;;;;;;;15.12;62.39;101488.50;20907570;28;20111;-69
2021/10/07 13:20:00;;;;;;;5.28;2.83;;;;;;;15.39;62.51;101491.56;20989533;28;20117;-69
2021/10/07 13:30:03;;;;;;;4.82;2.80;;;;;;;15.96;62.16;101474.66;20988627;28;20048;-68
2021/10/07 13:40:06;;;;;;;3.65;2.08;;;;;;;16.30;60.38;101472.16;20989528;28;20049;-68
2021/10/07 13:50:09;;;;;;;5.13;2.10;;;;;;;15.51;63.89;101498.38;21016070;28;20074;-69
2021/10/07 14:00:11;;;;;;;8.80;3.75;;;;;;;14.96;66.24;101500.22;20995494;28;20052;-70
2021/10/07 14:10:13;;;;;;;9.07;4.22;;;;;;;14.83;67.19;101506.56;20982349;28;20041;-69
2021/10/07 14:20:15;;;;;;;8.75;3.95;;;;;;;15.03;67.72;101509.75;20904053;28;20044;-69
2021/10/07 14:30:17;;;;;;;8.68;3.55;;;;;;;15.13;68.22;101516.63;20902155;28;20045;-69
2021/10/07 14:40:21;;;;;;;7.57;4.13;;;;;;;14.93;68.92;101517.84;20900834;28;20045;-69
2021/10/07 14:50:23;;;;;;;7.63;4.30;;;;;;;14.85;69.16;101517.97;20905176;28;20048;-68
2021/10/07 15:00:44;;;;;;;9.50;4.53;;;;;;;14.60;70.80;101513.06;20916737;28;20110;-68
2021/10/07 15:10:46;;;;;;;9.00;3.85;;;;;;;14.57;71.16;101510.50;20906981;28;20049;-68
2021/10/07 15:20:49;;;;;;;8.35;3.78;;;;;;;14.53;71.37;101518.47;20999497;28;20044;-68
2021/10/07 15:30:52;;;;;;;7.72;3.50;;;;;;;14.56;71.02;101516.66;20997673;28;20499;-69
2021/10/07 15:40:55;;;;;;;7.50;4.17;;;;;;;14.49;70.74;101507.09;20997895;28;20124;-69
2021/10/07 15:50:56;;;;;;;6.88;3.95;;;;;;;14.46;71.94;101498.31;20979324;28;20056;-69
2021/10/07 16:00:58;;;;;;;8.40;3.80;;;;;;;14.34;71.85;101504.63;20994804;28;20106;-69
2021/10/07 16:11:01;;;;;;;8.65;4.15;;;;;;;14.23;71.66;101509.16;20984588;28;20080;-68
2021/10/07 16:21:03;;;;;;;14.05;5.32;;;;;;;14.06;72.98;101519.91;20911572;28;20053;-68
2021/10/07 16:31:07;;;;;;;8.45;5.07;;;;;;;13.86;76.70;101522.78;20910505;28;20044;-68
2021/10/07 16:41:11;;;;;;;5.90;3.37;;;;;;;13.62;75.19;101525.69;20911288;28;20045;-68
2021/10/07 16:51:13;;;;;;;8.10;4.20;;;;;;;13.43;76.75;101533.75;20910539;28;20049;-68
2021/10/07 17:01:15;;;;;;;7.85;4.40;;;;;;;12.72;81.98;101541.28;20908923;28;20044;-69
2021/10/07 17:11:16;;;;;;;8.57;4.28;;;;;;;12.57;81.60;101547.50;20920125;28;20083;-69
2021/10/07 17:21:18;;;;;;;7.95;4.20;;;;;;;12.28;83.24;101554.66;20986843;28;20753;-69
2021/10/07 17:31:20;;;;;;;10.70;5.70;;;;;;;11.87;85.06;101557.41;20905099;28;20049;-69
2021/10/07 17:41:22;;;;;;;13.02;6.68;;;;;;;11.61;86.53;101568.81;20888808;28;20048;-69
2021/10/07 17:51:24;;;;;;;11.07;7.15;;;;;;;11.51;87.58;101559.19;20900334;28;20060;-68
2021/10/07 18:01:27;;;;;;;14.43;7.95;;;;;;;11.47;86.71;101563.56;20905010;28;20045;-69
2021/10/07 18:11:33;;;;;;;12.68;7.40;;;;;;;11.35;87.08;101583.66;20903425;28;20051;-69
2021/10/07 18:21:35;;;;;;;11.35;6.85;;;;;;;11.20;87.62;101588.03;20902523;28;20049;-69
2021/10/07 18:31:39;;;;;;;13.50;6.90;;;;;;;11.10;87.77;101603.75;20902026;28;20049;-69
2021/10/07 18:41:44;;;;;;;10.38;7.28;;;;;;;11.02;88.00;101617.75;20909491;28;20466;-69
2021/10/07 18:51:46;;;;;;;12.50;7.50;;;;;;;10.93;87.54;101616.84;20927161;28;20045;-69
2021/10/07 19:01:48;;;;;;;12.63;7.10;;;;;;;10.87;88.18;101609.81;20907065;28;20071;-69
2021/10/07 19:11:51;;;;;;;11.23;7.22;;;;;;;10.78;88.34;101615.06;20918713;28;20336;-69
2021/10/07 19:21:53;;;;;;;13.02;8.25;;;;;;;10.70;88.29;101624.63;20983952;28;20109;-69
2021/10/07 19:31:55;;;;;;;17.25;10.50;;;;;;;10.63;87.76;101617.59;20983052;28;20044;-69
2021/10/07 19:41:57;;;;;;;12.50;8.43;;;;;;;10.35;89.66;101629.69;20995823;28;20098;-69
2021/10/07 19:51:59;;;;;;;12.85;7.80;;;;;;;10.19;90.40;101640.06;20997094;28;20067;-70
2021/10/07 20:02:02;;;;;;;11.82;7.30;;;;;;;9.97;91.59;101631.22;20995659;28;20471;-70
2021/10/07 20:12:05;;;;;;;11.57;7.30;;;;;;;10.01;91.40;101632.09;20977143;28;20549;-70
2021/10/07 20:22:07;;;;;;;11.10;7.07;;;;;;;9.80;91.32;101645.91;20911911;28;20041;-70
2021/10/07 20:32:11;;;;;;;12.38;7.90;;;;;;;9.68;92.14;101648.47;20910549;28;20499;-70
2021/10/07 20:42:15;;;;;;;12.52;7.63;;;;;;;9.64;92.09;101636.22;20911035;28;20469;-70
2021/10/07 20:52:18;;;;;;;13.57;7.77;;;;;;;9.61;91.52;101646.63;20909099;28;20051;-70
2021/10/07 21:02:19;;;;;;;12.30;7.70;;;;;;;9.54;91.44;101644.84;20908708;28;20052;-69
2021/10/07 21:12:21;;;;;;;14.65;7.65;;;;;;;9.47;91.62;101647.38;20928748;28;20463;-69
2021/10/07 21:22:23;;;;;;;12.63;7.18;;;;;;;9.35;92.26;101642.06;20989864;28;20041;-70
2021/10/07 21:32:26;;;;;;;12.75;8.63;;;;;;;9.28;93.04;101648.09;20988400;28;20048;-70
2021/10/07 21:42:27;;;;;;;15.82;8.13;;;;;;;9.19;91.65;101642.75;20988855;28;20056;-70
2021/10/07 21:52:29;;;;;;;14.10;7.88;;;;;;;9.05;92.21;101642.63;20987798;28;20126;-71
2021/10/07 22:02:31;;;;;;;17.30;7.72;;;;;;;8.92;92.85;101644.25;20985330;28;20093;-70
2021/10/07 22:12:33;;;;;;;15.55;9.38;;;;;;;8.97;92.33;101632.13;20826701;28;20099;-70
2021/10/07 22:22:35;;;;;;;17.98;9.52;;;;;;;8.94;92.97;101636.41;20820475;28;20054;-70
2021/10/07 22:32:38;;;;;;;16.45;9.73;;;;;;;8.86;92.17;101644.19;20819074;28;20049;-70
2021/10/07 22:42:40;;;;;;;15.75;10.05;;;;;;;8.77;92.75;101632.72;20819365;28;20046;-69
2021/10/07 22:52:42;;;;;;;15.25;8.90;;;;;;;8.60;92.17;101643.00;20819172;28;20645;-70
2021/10/07 23:02:45;;;;;;;16.02;9.30;;;;;;;8.59;92.79;101641.25;20801573;28;20054;-70
2021/10/07 23:12:47;;;;;;;16.90;10.80;;;;;;;8.56;92.98;101654.25;20825354;28;20095;-70
2021/10/07 23:22:48;;;;;;;16.63;10.23;;;;;;;8.45;93.10;101641.94;20836192;28;20188;-70
2021/10/07 23:32:50;;;;;;;17.60;11.30;;;;;;;8.52;92.69;101647.22;20909007;28;20091;-70
2021/10/07 23:42:52;;;;;;;17.77;10.77;;;;;;;8.36;93.00;101641.81;20918512;28;20422;-70
2021/10/07 23:52:54;;;;;;;16.83;11.05;;;;;;;8.38;93.06;101650.53;20914536;28;20053;-70
